sensor_id;sensor_type;location;lat;lon;timestamp;temperature;humidity
71082;SHT31;58740;50.672;18.690;2023-02-05T00:01:42;-1.27;79.70
71082;SHT31;58740;50.672;18.690;2023-02-05T00:04:09;-1.26;79.71
71082;SHT31;58740;50.672;18.690;2023-02-05T00:06:37;-1.27;79.70
71082;SHT31;58740;50.672;18.690;2023-02-05T00:09:05;-1.27;79.75
71082;SHT31;58740;50.672;18.690;2023-02-05T00:11:32;-1.23;79.70
71082;SHT31;58740;50.672;18.690;2023-02-05T00:14:00;-1.18;79.62
71082;SHT31;58740;50.672;18.690;2023-02-05T00:16:28;-1.16;79.59
71082;SHT31;58740;50.672;18.690;2023-02-05T00:18:56;-1.15;79.57
71082;SHT31;58740;50.672;18.690;2023-02-05T00:21:24;-1.14;79.57
71082;SHT31;58740;50.672;18.690;2023-02-05T00:23:52;-1.14;79.50
71082;SHT31;58740;50.672;18.690;2023-02-05T00:26:20;-1.15;79.42
71082;SHT31;58740;50.672;18.690;2023-02-05T00:28:48;-1.16;79.32
71082;SHT31;58740;50.672;18.690;2023-02-05T00:31:17;-1.19;79.33
71082;SHT31;58740;50.672;18.690;2023-02-05T00:33:48;-1.21;79.39
71082;SHT31;58740;50.672;18.690;2023-02-05T00:36:18;-1.22;79.30
71082;SHT31;58740;50.672;18.690;2023-02-05T00:38:50;-1.22;79.30
71082;SHT31;58740;50.672;18.690;2023-02-05T00:41:24;-1.22;79.26
71082;SHT31;58740;50.672;18.690;2023-02-05T00:43:52;-1.18;79.30
71082;SHT31;58740;50.672;18.690;2023-02-05T00:46:22;-1.16;79.42
71082;SHT31;58740;50.672;18.690;2023-02-05T00:48:50;-1.14;79.29
71082;SHT31;58740;50.672;18.690;2023-02-05T00:51:17;-1.15;79.16
71082;SHT31;58740;50.672;18.690;2023-02-05T00:53:45;-1.16;79.14
71082;SHT31;58740;50.672;18.690;2023-02-05T00:56:13;-1.19;79.07
71082;SHT31;58740;50.672;18.690;2023-02-05T00:58:41;-1.23;79.01
71082;SHT31;58740;50.672;18.690;2023-02-05T01:01:13;-1.28;78.84
71082;SHT31;58740;50.672;18.690;2023-02-05T01:03:42;-1.33;78.89
71082;SHT31;58740;50.672;18.690;2023-02-05T01:06:11;-1.34;78.94
71082;SHT31;58740;50.672;18.690;2023-02-05T01:08:39;-1.33;79.00
71082;SHT31;58740;50.672;18.690;2023-02-05T01:11:07;-1.33;78.92
71082;SHT31;58740;50.672;18.690;2023-02-05T01:13:40;-1.33;78.99
71082;SHT31;58740;50.672;18.690;2023-02-05T01:16:08;-1.31;78.97
71082;SHT31;58740;50.672;18.690;2023-02-05T01:18:37;-1.31;78.82
71082;SHT31;58740;50.672;18.690;2023-02-05T01:21:04;-1.34;78.81
71082;SHT31;58740;50.672;18.690;2023-02-05T01:23:32;-1.38;78.78
71082;SHT31;58740;50.672;18.690;2023-02-05T01:26:00;-1.40;78.87
71082;SHT31;58740;50.672;18.690;2023-02-05T01:28:27;-1.42;78.87
71082;SHT31;58740;50.672;18.690;2023-02-05T01:30:55;-1.45;78.86
71082;SHT31;58740;50.672;18.690;2023-02-05T01:33:23;-1.47;78.92
71082;SHT31;58740;50.672;18.690;2023-02-05T01:35:51;-1.48;78.88
71082;SHT31;58740;50.672;18.690;2023-02-05T01:38:19;-1.47;78.80
71082;SHT31;58740;50.672;18.690;2023-02-05T01:40:46;-1.46;78.79
71082;SHT31;58740;50.672;18.690;2023-02-05T01:43:15;-1.45;78.74
71082;SHT31;58740;50.672;18.690;2023-02-05T01:48:31;-1.44;78.71
71082;SHT31;58740;50.672;18.690;2023-02-05T01:51:06;-1.44;78.71
71082;SHT31;58740;50.672;18.690;2023-02-05T01:53:38;-1.44;78.68
71082;SHT31;58740;50.672;18.690;2023-02-05T01:56:09;-1.44;78.69
71082;SHT31;58740;50.672;18.690;2023-02-05T01:58:45;-1.46;78.64
71082;SHT31;58740;50.672;18.690;2023-02-05T02:01:19;-1.46;78.76
71082;SHT31;58740;50.672;18.690;2023-02-05T02:03:47;-1.48;78.79
71082;SHT31;58740;50.672;18.690;2023-02-05T02:06:17;-1.48;78.85
71082;SHT31;58740;50.672;18.690;2023-02-05T02:08:45;-1.46;78.89
71082;SHT31;58740;50.672;18.690;2023-02-05T02:11:13;-1.42;78.80
71082;SHT31;58740;50.672;18.690;2023-02-05T02:13:47;-1.42;78.66
71082;SHT31;58740;50.672;18.690;2023-02-05T02:16:18;-1.39;78.66
71082;SHT31;58740;50.672;18.690;2023-02-05T02:18:47;-1.38;78.58
71082;SHT31;58740;50.672;18.690;2023-02-05T02:33:16;-1.49;78.66
71082;SHT31;58740;50.672;18.690;2023-02-05T02:35:57;-1.53;78.69
71082;SHT31;58740;50.672;18.690;2023-02-05T02:42:01;-1.63;78.84
71082;SHT31;58740;50.672;18.690;2023-02-05T02:47:11;-1.65;78.90
71082;SHT31;58740;50.672;18.690;2023-02-05T02:49:46;-1.64;78.94
71082;SHT31;58740;50.672;18.690;2023-02-05T02:52:20;-1.61;79.00
71082;SHT31;58740;50.672;18.690;2023-02-05T02:54:53;-1.59;78.96
71082;SHT31;58740;50.672;18.690;2023-02-05T02:57:27;-1.59;78.90
71082;SHT31;58740;50.672;18.690;2023-02-05T02:59:57;-1.61;78.83
71082;SHT31;58740;50.672;18.690;2023-02-05T03:02:29;-1.64;78.77
71082;SHT31;58740;50.672;18.690;2023-02-05T03:05:03;-1.68;78.50
71082;SHT31;58740;50.672;18.690;2023-02-05T03:07:42;-1.72;78.46
71082;SHT31;58740;50.672;18.690;2023-02-05T03:11:05;-1.76;78.32
71082;SHT31;58740;50.672;18.690;2023-02-05T03:13:21;-1.80;78.33
71082;SHT31;58740;50.672;18.690;2023-02-05T03:15:49;-1.78;78.45
71082;SHT31;58740;50.672;18.690;2023-02-05T03:18:17;-1.78;78.13
71082;SHT31;58740;50.672;18.690;2023-02-05T03:20:54;-1.82;77.98
71082;SHT31;58740;50.672;18.690;2023-02-05T03:23:26;-1.85;78.17
71082;SHT31;58740;50.672;18.690;2023-02-05T03:25:55;-1.86;78.32
71082;SHT31;58740;50.672;18.690;2023-02-05T03:28:22;-1.86;78.35
71082;SHT31;58740;50.672;18.690;2023-02-05T03:30:53;-1.87;78.32
71082;SHT31;58740;50.672;18.690;2023-02-05T03:36:24;-1.91;78.00
71082;SHT31;58740;50.672;18.690;2023-02-05T03:45:24;-1.94;78.18
71082;SHT31;58740;50.672;18.690;2023-02-05T03:48:14;-1.97;77.83
71082;SHT31;58740;50.672;18.690;2023-02-05T03:59:33;-1.95;77.07
71082;SHT31;58740;50.672;18.690;2023-02-05T04:02:03;-1.96;76.87
71082;SHT31;58740;50.672;18.690;2023-02-05T04:04:32;-1.97;76.75
71082;SHT31;58740;50.672;18.690;2023-02-05T04:07:00;-1.99;76.92
71082;SHT31;58740;50.672;18.690;2023-02-05T04:09:29;-2.00;76.92
71082;SHT31;58740;50.672;18.690;2023-02-05T04:11:57;-2.03;76.86
71082;SHT31;58740;50.672;18.690;2023-02-05T04:14:24;-2.08;76.67
71082;SHT31;58740;50.672;18.690;2023-02-05T04:16:52;-2.11;76.76
71082;SHT31;58740;50.672;18.690;2023-02-05T04:19:20;-2.16;76.57
71082;SHT31;58740;50.672;18.690;2023-02-05T04:21:48;-2.21;76.41
71082;SHT31;58740;50.672;18.690;2023-02-05T04:24:15;-2.28;76.38
71082;SHT31;58740;50.672;18.690;2023-02-05T04:26:43;-2.34;76.39
71082;SHT31;58740;50.672;18.690;2023-02-05T04:29:11;-2.42;76.23
71082;SHT31;58740;50.672;18.690;2023-02-05T04:31:38;-2.51;76.30
71082;SHT31;58740;50.672;18.690;2023-02-05T04:34:06;-2.58;76.18
71082;SHT31;58740;50.672;18.690;2023-02-05T04:36:34;-2.66;76.28
71082;SHT31;58740;50.672;18.690;2023-02-05T04:39:02;-2.70;76.36
71082;SHT31;58740;50.672;18.690;2023-02-05T04:41:30;-2.76;76.34
71082;SHT31;58740;50.672;18.690;2023-02-05T04:43:58;-2.81;76.52
71082;SHT31;58740;50.672;18.690;2023-02-05T04:46:25;-2.87;76.66
71082;SHT31;58740;50.672;18.690;2023-02-05T04:48:53;-2.94;76.71
71082;SHT31;58740;50.672;18.690;2023-02-05T04:51:21;-3.02;76.75
71082;SHT31;58740;50.672;18.690;2023-02-05T04:53:49;-3.10;76.84
71082;SHT31;58740;50.672;18.690;2023-02-05T04:56:17;-3.17;77.01
71082;SHT31;58740;50.672;18.690;2023-02-05T04:58:45;-3.22;77.10
71082;SHT31;58740;50.672;18.690;2023-02-05T05:01:14;-3.28;77.04
71082;SHT31;58740;50.672;18.690;2023-02-05T05:03:47;-3.35;77.15
71082;SHT31;58740;50.672;18.690;2023-02-05T05:06:16;-3.42;77.14
71082;SHT31;58740;50.672;18.690;2023-02-05T05:08:45;-3.50;77.30
71082;SHT31;58740;50.672;18.690;2023-02-05T05:11:14;-3.51;77.36
71082;SHT31;58740;50.672;18.690;2023-02-05T05:13:46;-3.52;77.48
71082;SHT31;58740;50.672;18.690;2023-02-05T05:16:16;-3.54;77.27
71082;SHT31;58740;50.672;18.690;2023-02-05T05:18:44;-3.55;77.23
71082;SHT31;58740;50.672;18.690;2023-02-05T05:21:11;-3.56;77.26
71082;SHT31;58740;50.672;18.690;2023-02-05T05:23:39;-3.56;77.17
71082;SHT31;58740;50.672;18.690;2023-02-05T05:26:08;-3.57;77.13
71082;SHT31;58740;50.672;18.690;2023-02-05T05:28:38;-3.58;77.22
71082;SHT31;58740;50.672;18.690;2023-02-05T05:31:11;-3.57;77.18
71082;SHT31;58740;50.672;18.690;2023-02-05T05:33:43;-3.59;77.15
71082;SHT31;58740;50.672;18.690;2023-02-05T05:36:10;-3.62;77.07
71082;SHT31;58740;50.672;18.690;2023-02-05T05:38:38;-3.66;77.11
71082;SHT31;58740;50.672;18.690;2023-02-05T05:41:08;-3.69;77.27
71082;SHT31;58740;50.672;18.690;2023-02-05T05:44:04;-3.72;77.24
71082;SHT31;58740;50.672;18.690;2023-02-05T05:46:32;-3.74;77.26
71082;SHT31;58740;50.672;18.690;2023-02-05T05:49:01;-3.78;77.12
71082;SHT31;58740;50.672;18.690;2023-02-05T05:51:29;-3.80;77.25
71082;SHT31;58740;50.672;18.690;2023-02-05T05:53:59;-3.82;77.31
71082;SHT31;58740;50.672;18.690;2023-02-05T05:56:27;-3.78;77.35
71082;SHT31;58740;50.672;18.690;2023-02-05T05:58:55;-3.74;77.19
71082;SHT31;58740;50.672;18.690;2023-02-05T06:01:23;-3.75;77.18
71082;SHT31;58740;50.672;18.690;2023-02-05T06:03:50;-3.74;77.18
71082;SHT31;58740;50.672;18.690;2023-02-05T06:06:18;-3.74;77.04
71082;SHT31;58740;50.672;18.690;2023-02-05T06:08:46;-3.74;76.78
71082;SHT31;58740;50.672;18.690;2023-02-05T06:11:14;-3.76;76.48
71082;SHT31;58740;50.672;18.690;2023-02-05T06:13:41;-3.82;76.27
71082;SHT31;58740;50.672;18.690;2023-02-05T06:16:09;-3.86;76.43
71082;SHT31;58740;50.672;18.690;2023-02-05T06:18:37;-3.89;76.29
71082;SHT31;58740;50.672;18.690;2023-02-05T06:21:05;-3.94;76.05
71082;SHT31;58740;50.672;18.690;2023-02-05T06:23:33;-3.98;76.21
71082;SHT31;58740;50.672;18.690;2023-02-05T06:26:01;-4.01;76.48
71082;SHT31;58740;50.672;18.690;2023-02-05T06:28:28;-4.03;76.51
71082;SHT31;58740;50.672;18.690;2023-02-05T06:30:56;-4.09;76.50
71082;SHT31;58740;50.672;18.690;2023-02-05T06:33:24;-4.15;76.41
71082;SHT31;58740;50.672;18.690;2023-02-05T06:35:52;-4.22;76.39
71082;SHT31;58740;50.672;18.690;2023-02-05T06:38:20;-4.24;76.14
71082;SHT31;58740;50.672;18.690;2023-02-05T06:40:48;-4.28;75.53
71082;SHT31;58740;50.672;18.690;2023-02-05T06:43:16;-4.32;75.28
71082;SHT31;58740;50.672;18.690;2023-02-05T06:45:43;-4.37;74.97
71082;SHT31;58740;50.672;18.690;2023-02-05T06:48:11;-4.43;74.63
71082;SHT31;58740;50.672;18.690;2023-02-05T06:50:39;-4.52;74.51
71082;SHT31;58740;50.672;18.690;2023-02-05T06:53:07;-4.58;74.55
71082;SHT31;58740;50.672;18.690;2023-02-05T06:55:37;-4.65;74.56
71082;SHT31;58740;50.672;18.690;2023-02-05T06:58:05;-4.66;74.76
71082;SHT31;58740;50.672;18.690;2023-02-05T07:00:34;-4.67;74.76
71082;SHT31;58740;50.672;18.690;2023-02-05T07:03:02;-4.66;74.76
71082;SHT31;58740;50.672;18.690;2023-02-05T07:05:32;-4.66;74.76
71082;SHT31;58740;50.672;18.690;2023-02-05T07:08:01;-4.65;74.75
71082;SHT31;58740;50.672;18.690;2023-02-05T07:10:30;-4.64;74.98
71082;SHT31;58740;50.672;18.690;2023-02-05T07:12:58;-4.58;75.93
71082;SHT31;58740;50.672;18.690;2023-02-05T07:15:26;-4.50;76.37
71082;SHT31;58740;50.672;18.690;2023-02-05T07:17:54;-4.41;76.54
71082;SHT31;58740;50.672;18.690;2023-02-05T07:20:21;-4.32;76.66
71082;SHT31;58740;50.672;18.690;2023-02-05T07:22:49;-4.19;76.67
71082;SHT31;58740;50.672;18.690;2023-02-05T07:25:17;-4.09;76.59
71082;SHT31;58740;50.672;18.690;2023-02-05T07:27:45;-4.00;76.62
71082;SHT31;58740;50.672;18.690;2023-02-05T07:30:13;-3.90;76.57
71082;SHT31;58740;50.672;18.690;2023-02-05T07:32:41;-3.86;76.44
71082;SHT31;58740;50.672;18.690;2023-02-05T07:35:09;-3.83;76.40
71082;SHT31;58740;50.672;18.690;2023-02-05T07:37:37;-3.80;76.42
71082;SHT31;58740;50.672;18.690;2023-02-05T07:40:06;-3.79;76.48
71082;SHT31;58740;50.672;18.690;2023-02-05T07:42:34;-3.75;76.68
71082;SHT31;58740;50.672;18.690;2023-02-05T07:45:05;-3.72;76.70
71082;SHT31;58740;50.672;18.690;2023-02-05T07:47:33;-3.67;76.80
71082;SHT31;58740;50.672;18.690;2023-02-05T07:50:01;-3.63;76.81
71082;SHT31;58740;50.672;18.690;2023-02-05T07:52:33;-3.59;76.86
71082;SHT31;58740;50.672;18.690;2023-02-05T07:55:01;-3.55;76.96
71082;SHT31;58740;50.672;18.690;2023-02-05T07:57:28;-3.49;77.01
71082;SHT31;58740;50.672;18.690;2023-02-05T08:00:04;-3.42;77.15
71082;SHT31;58740;50.672;18.690;2023-02-05T08:02:33;-3.34;77.35
71082;SHT31;58740;50.672;18.690;2023-02-05T08:05:00;-3.25;77.33
71082;SHT31;58740;50.672;18.690;2023-02-05T08:07:28;-3.21;77.49
71082;SHT31;58740;50.672;18.690;2023-02-05T08:09:56;-3.17;77.56
71082;SHT31;58740;50.672;18.690;2023-02-05T08:12:26;-3.13;77.64
71082;SHT31;58740;50.672;18.690;2023-02-05T08:14:54;-3.11;77.64
71082;SHT31;58740;50.672;18.690;2023-02-05T08:17:21;-3.10;77.62
71082;SHT31;58740;50.672;18.690;2023-02-05T08:19:49;-3.10;77.79
71082;SHT31;58740;50.672;18.690;2023-02-05T08:22:17;-3.07;77.77
71082;SHT31;58740;50.672;18.690;2023-02-05T08:24:45;-3.02;77.76
71082;SHT31;58740;50.672;18.690;2023-02-05T08:27:13;-2.98;77.69
71082;SHT31;58740;50.672;18.690;2023-02-05T08:29:40;-2.94;77.63
71082;SHT31;58740;50.672;18.690;2023-02-05T08:32:08;-2.89;77.60
71082;SHT31;58740;50.672;18.690;2023-02-05T08:34:36;-2.83;77.52
71082;SHT31;58740;50.672;18.690;2023-02-05T08:37:04;-2.82;77.50
71082;SHT31;58740;50.672;18.690;2023-02-05T08:39:32;-2.79;77.46
71082;SHT31;58740;50.672;18.690;2023-02-05T08:42:00;-2.77;77.43
71082;SHT31;58740;50.672;18.690;2023-02-05T08:44:30;-2.78;77.50
71082;SHT31;58740;50.672;18.690;2023-02-05T08:46:57;-2.76;77.56
71082;SHT31;58740;50.672;18.690;2023-02-05T08:49:25;-2.73;77.51
71082;SHT31;58740;50.672;18.690;2023-02-05T08:51:53;-2.76;77.37
71082;SHT31;58740;50.672;18.690;2023-02-05T08:54:20;-2.76;77.42
71082;SHT31;58740;50.672;18.690;2023-02-05T08:56:48;-2.75;77.43
71082;SHT31;58740;50.672;18.690;2023-02-05T08:59:18;-2.74;77.34
71082;SHT31;58740;50.672;18.690;2023-02-05T09:01:47;-2.69;77.43
71082;SHT31;58740;50.672;18.690;2023-02-05T09:04:19;-2.63;77.48
71082;SHT31;58740;50.672;18.690;2023-02-05T09:06:49;-2.55;77.35
71082;SHT31;58740;50.672;18.690;2023-02-05T09:09:18;-2.51;77.17
71082;SHT31;58740;50.672;18.690;2023-02-05T09:11:46;-2.50;76.93
71082;SHT31;58740;50.672;18.690;2023-02-05T09:14:15;-2.49;76.85
71082;SHT31;58740;50.672;18.690;2023-02-05T09:16:42;-2.50;76.58
71082;SHT31;58740;50.672;18.690;2023-02-05T09:19:10;-2.52;76.41
71082;SHT31;58740;50.672;18.690;2023-02-05T09:21:39;-2.53;76.18
71082;SHT31;58740;50.672;18.690;2023-02-05T09:24:10;-2.55;75.22
71082;SHT31;58740;50.672;18.690;2023-02-05T09:26:38;-2.55;74.46
71082;SHT31;58740;50.672;18.690;2023-02-05T09:29:05;-2.50;74.02
71082;SHT31;58740;50.672;18.690;2023-02-05T09:31:35;-2.45;73.85
71082;SHT31;58740;50.672;18.690;2023-02-05T09:34:03;-2.37;73.87
71082;SHT31;58740;50.672;18.690;2023-02-05T09:36:31;-2.30;73.67
71082;SHT31;58740;50.672;18.690;2023-02-05T09:38:59;-2.27;72.82
71082;SHT31;58740;50.672;18.690;2023-02-05T09:41:52;-2.23;72.72
71082;SHT31;58740;50.672;18.690;2023-02-05T09:50:33;-2.13;71.90
71082;SHT31;58740;50.672;18.690;2023-02-05T09:53:03;-2.11;71.50
71082;SHT31;58740;50.672;18.690;2023-02-05T09:55:40;-2.10;70.94
71082;SHT31;58740;50.672;18.690;2023-02-05T09:58:17;-2.12;70.77
71082;SHT31;58740;50.672;18.690;2023-02-05T10:00:53;-2.09;71.04
71082;SHT31;58740;50.672;18.690;2023-02-05T10:03:43;-2.10;70.94
71082;SHT31;58740;50.672;18.690;2023-02-05T10:06:25;-2.11;70.64
71082;SHT31;58740;50.672;18.690;2023-02-05T10:12:35;-2.24;70.23
71082;SHT31;58740;50.672;18.690;2023-02-05T10:15:43;-2.27;70.59
71082;SHT31;58740;50.672;18.690;2023-02-05T10:33:52;-2.31;70.78
71082;SHT31;58740;50.672;18.690;2023-02-05T10:36:30;-2.33;69.79
71082;SHT31;58740;50.672;18.690;2023-02-05T10:38:58;-2.38;69.83
71082;SHT31;58740;50.672;18.690;2023-02-05T10:41:34;-2.43;69.43
71082;SHT31;58740;50.672;18.690;2023-02-05T10:47:24;-2.54;69.63
71082;SHT31;58740;50.672;18.690;2023-02-05T10:50:04;-2.55;70.16
71082;SHT31;58740;50.672;18.690;2023-02-05T10:52:43;-2.54;70.41
71082;SHT31;58740;50.672;18.690;2023-02-05T10:55:11;-2.48;70.53
71082;SHT31;58740;50.672;18.690;2023-02-05T10:57:40;-2.45;70.52
71082;SHT31;58740;50.672;18.690;2023-02-05T11:00:15;-2.44;70.62
71082;SHT31;58740;50.672;18.690;2023-02-05T11:03:05;-2.38;70.82
71082;SHT31;58740;50.672;18.690;2023-02-05T11:05:34;-2.39;70.47
71082;SHT31;58740;50.672;18.690;2023-02-05T11:08:29;-2.40;70.70
71082;SHT31;58740;50.672;18.690;2023-02-05T11:10:58;-2.41;70.92
71082;SHT31;58740;50.672;18.690;2023-02-05T11:13:27;-2.43;70.89
71082;SHT31;58740;50.672;18.690;2023-02-05T11:16:01;-2.45;70.82
71082;SHT31;58740;50.672;18.690;2023-02-05T11:18:35;-2.47;70.97
71082;SHT31;58740;50.672;18.690;2023-02-05T11:21:07;-2.48;71.02
71082;SHT31;58740;50.672;18.690;2023-02-05T11:23:39;-2.45;71.12
71082;SHT31;58740;50.672;18.690;2023-02-05T11:26:25;-2.41;70.94
71082;SHT31;58740;50.672;18.690;2023-02-05T11:28:56;-2.41;71.17
71082;SHT31;58740;50.672;18.690;2023-02-05T11:31:30;-2.39;70.87
71082;SHT31;58740;50.672;18.690;2023-02-05T11:36:38;-2.37;70.08
71082;SHT31;58740;50.672;18.690;2023-02-05T11:39:27;-2.37;69.54
71082;SHT31;58740;50.672;18.690;2023-02-05T11:44:49;-2.43;68.21
71082;SHT31;58740;50.672;18.690;2023-02-05T11:47:30;-2.43;68.48
71082;SHT31;58740;50.672;18.690;2023-02-05T11:50:16;-2.39;69.14
71082;SHT31;58740;50.672;18.690;2023-02-05T11:52:49;-2.31;68.64
71082;SHT31;58740;50.672;18.690;2023-02-05T11:58:00;-2.23;68.76
71082;SHT31;58740;50.672;18.690;2023-02-05T12:00:32;-2.20;68.76
71082;SHT31;58740;50.672;18.690;2023-02-05T12:03:19;-2.18;68.48
71082;SHT31;58740;50.672;18.690;2023-02-05T12:05:51;-2.19;68.15
71082;SHT31;58740;50.672;18.690;2023-02-05T12:08:31;-2.15;68.53
71082;SHT31;58740;50.672;18.690;2023-02-05T12:14:05;-2.12;67.87
71082;SHT31;58740;50.672;18.690;2023-02-05T12:16:47;-2.12;67.89
71082;SHT31;58740;50.672;18.690;2023-02-05T12:19:32;-2.10;68.09
71082;SHT31;58740;50.672;18.690;2023-02-05T12:34:24;-1.84;67.44
71082;SHT31;58740;50.672;18.690;2023-02-05T12:37:15;-1.82;67.53
71082;SHT31;58740;50.672;18.690;2023-02-05T12:40:10;-1.79;67.65
71082;SHT31;58740;50.672;18.690;2023-02-05T12:55:29;-1.77;67.05
71082;SHT31;58740;50.672;18.690;2023-02-05T12:58:12;-1.77;67.08
71082;SHT31;58740;50.672;18.690;2023-02-05T13:00:43;-1.76;66.99
71082;SHT31;58740;50.672;18.690;2023-02-05T13:05:57;-1.78;66.13
71082;SHT31;58740;50.672;18.690;2023-02-05T13:11:16;-1.77;66.59
71082;SHT31;58740;50.672;18.690;2023-02-05T13:14:13;-1.79;66.39
71082;SHT31;58740;50.672;18.690;2023-02-05T13:16:49;-1.81;66.44
71082;SHT31;58740;50.672;18.690;2023-02-05T13:19:58;-1.85;66.56
71082;SHT31;58740;50.672;18.690;2023-02-05T13:22:37;-1.87;66.34
71082;SHT31;58740;50.672;18.690;2023-02-05T13:25:38;-1.91;66.01
71082;SHT31;58740;50.672;18.690;2023-02-05T13:28:33;-1.95;66.26
71082;SHT31;58740;50.672;18.690;2023-02-05T13:33:59;-1.98;66.73
71082;SHT31;58740;50.672;18.690;2023-02-05T13:42:19;-2.00;66.30
71082;SHT31;58740;50.672;18.690;2023-02-05T13:49:10;-1.98;66.23
71082;SHT31;58740;50.672;18.690;2023-02-05T13:54:31;-1.96;66.11
71082;SHT31;58740;50.672;18.690;2023-02-05T14:00:40;-1.96;65.57
71082;SHT31;58740;50.672;18.690;2023-02-05T14:03:20;-1.96;65.68
71082;SHT31;58740;50.672;18.690;2023-02-05T14:05:57;-1.99;65.66
71082;SHT31;58740;50.672;18.690;2023-02-05T14:08:25;-1.97;65.86
71082;SHT31;58740;50.672;18.690;2023-02-05T14:11:03;-2.01;65.54
71082;SHT31;58740;50.672;18.690;2023-02-05T14:13:33;-2.02;66.00
71082;SHT31;58740;50.672;18.690;2023-02-05T14:23:57;-2.09;65.74
71082;SHT31;58740;50.672;18.690;2023-02-05T14:27:04;-2.12;65.62
71082;SHT31;58740;50.672;18.690;2023-02-05T14:35:30;-2.11;65.57
71082;SHT31;58740;50.672;18.690;2023-02-05T14:38:23;-2.08;65.44
71082;SHT31;58740;50.672;18.690;2023-02-05T14:43:44;-2.01;65.79
71082;SHT31;58740;50.672;18.690;2023-02-05T14:55:14;-2.06;65.79
71082;SHT31;58740;50.672;18.690;2023-02-05T14:57:49;-2.08;65.64
71082;SHT31;58740;50.672;18.690;2023-02-05T15:00:41;-2.12;65.14
71082;SHT31;58740;50.672;18.690;2023-02-05T15:05:57;-2.22;65.52
71082;SHT31;58740;50.672;18.690;2023-02-05T15:11:11;-2.32;65.77
71082;SHT31;58740;50.672;18.690;2023-02-05T15:16:46;-2.40;65.87
71082;SHT31;58740;50.672;18.690;2023-02-05T15:19:48;-2.44;65.67
71082;SHT31;58740;50.672;18.690;2023-02-05T15:25:34;-2.49;65.90
71082;SHT31;58740;50.672;18.690;2023-02-05T15:28:20;-2.51;65.74
71082;SHT31;58740;50.672;18.690;2023-02-05T15:36:30;-2.62;65.90
71082;SHT31;58740;50.672;18.690;2023-02-05T15:41:54;-2.71;65.85
71082;SHT31;58740;50.672;18.690;2023-02-05T15:44:27;-2.74;65.87
71082;SHT31;58740;50.672;18.690;2023-02-05T15:46:59;-2.77;66.14
71082;SHT31;58740;50.672;18.690;2023-02-05T15:49:34;-2.78;66.61
71082;SHT31;58740;50.672;18.690;2023-02-05T15:54:57;-2.81;66.92
71082;SHT31;58740;50.672;18.690;2023-02-05T15:57:35;-2.83;67.11
71082;SHT31;58740;50.672;18.690;2023-02-05T16:00:04;-2.85;67.12
71082;SHT31;58740;50.672;18.690;2023-02-05T16:02:37;-2.87;67.36
71082;SHT31;58740;50.672;18.690;2023-02-05T16:05:16;-2.89;67.41
71082;SHT31;58740;50.672;18.690;2023-02-05T16:07:49;-2.89;67.67
71082;SHT31;58740;50.672;18.690;2023-02-05T16:10:24;-2.87;67.75
71082;SHT31;58740;50.672;18.690;2023-02-05T16:13:05;-2.82;67.66
71082;SHT31;58740;50.672;18.690;2023-02-05T16:15:43;-2.78;67.68
71082;SHT31;58740;50.672;18.690;2023-02-05T16:21:24;-2.74;67.69
71082;SHT31;58740;50.672;18.690;2023-02-05T16:24:05;-2.74;67.84
71082;SHT31;58740;50.672;18.690;2023-02-05T16:27:04;-2.74;67.69
71082;SHT31;58740;50.672;18.690;2023-02-05T16:29:51;-2.74;67.71
71082;SHT31;58740;50.672;18.690;2023-02-05T16:34:57;-2.77;67.99
71082;SHT31;58740;50.672;18.690;2023-02-05T16:37:29;-2.79;67.87
71082;SHT31;58740;50.672;18.690;2023-02-05T16:39:59;-2.83;67.70
71082;SHT31;58740;50.672;18.690;2023-02-05T16:42:36;-2.88;67.36
71082;SHT31;58740;50.672;18.690;2023-02-05T16:47:37;-2.97;67.37
71082;SHT31;58740;50.672;18.690;2023-02-05T16:53:41;-3.03;67.54
71082;SHT31;58740;50.672;18.690;2023-02-05T16:56:16;-3.08;67.52
71082;SHT31;58740;50.672;18.690;2023-02-05T16:58:50;-3.09;67.66
71082;SHT31;58740;50.672;18.690;2023-02-05T17:01:24;-3.10;67.54
71082;SHT31;58740;50.672;18.690;2023-02-05T17:04:06;-3.10;67.65
71082;SHT31;58740;50.672;18.690;2023-02-05T17:06:35;-3.11;67.96
71082;SHT31;58740;50.672;18.690;2023-02-05T17:09:04;-3.10;68.36
71082;SHT31;58740;50.672;18.690;2023-02-05T17:11:39;-3.11;68.63
71082;SHT31;58740;50.672;18.690;2023-02-05T17:17:00;-3.15;69.22
71082;SHT31;58740;50.672;18.690;2023-02-05T17:19:42;-3.15;69.50
71082;SHT31;58740;50.672;18.690;2023-02-05T17:24:41;-3.07;69.05
71082;SHT31;58740;50.672;18.690;2023-02-05T17:27:22;-3.04;68.56
71082;SHT31;58740;50.672;18.690;2023-02-05T17:29:58;-3.01;68.30
71082;SHT31;58740;50.672;18.690;2023-02-05T17:32:27;-3.02;68.18
71082;SHT31;58740;50.672;18.690;2023-02-05T17:34:56;-3.00;68.46
71082;SHT31;58740;50.672;18.690;2023-02-05T17:37:24;-2.99;68.67
71082;SHT31;58740;50.672;18.690;2023-02-05T17:39:52;-2.97;68.66
71082;SHT31;58740;50.672;18.690;2023-02-05T17:42:23;-2.97;68.42
71082;SHT31;58740;50.672;18.690;2023-02-05T17:44:52;-2.96;68.57
71082;SHT31;58740;50.672;18.690;2023-02-05T17:47:20;-2.96;68.36
71082;SHT31;58740;50.672;18.690;2023-02-05T17:49:48;-2.95;68.31
71082;SHT31;58740;50.672;18.690;2023-02-05T17:52:16;-2.97;68.14
71082;SHT31;58740;50.672;18.690;2023-02-05T17:54:44;-2.96;68.66
71082;SHT31;58740;50.672;18.690;2023-02-05T17:57:13;-2.96;68.42
71082;SHT31;58740;50.672;18.690;2023-02-05T17:59:44;-2.97;68.24
71082;SHT31;58740;50.672;18.690;2023-02-05T18:02:13;-2.97;68.34
71082;SHT31;58740;50.672;18.690;2023-02-05T18:04:42;-2.97;68.47
71082;SHT31;58740;50.672;18.690;2023-02-05T18:09:56;-2.98;68.84
71082;SHT31;58740;50.672;18.690;2023-02-05T18:12:28;-2.97;68.52
71082;SHT31;58740;50.672;18.690;2023-02-05T18:14:56;-2.98;68.37
71082;SHT31;58740;50.672;18.690;2023-02-05T18:17:24;-2.98;68.73
71082;SHT31;58740;50.672;18.690;2023-02-05T18:19:52;-2.97;68.75
71082;SHT31;58740;50.672;18.690;2023-02-05T18:22:20;-2.96;67.96
71082;SHT31;58740;50.672;18.690;2023-02-05T18:24:48;-2.97;67.69
71082;SHT31;58740;50.672;18.690;2023-02-05T18:27:16;-2.97;67.89
71082;SHT31;58740;50.672;18.690;2023-02-05T18:29:44;-2.96;68.04
71082;SHT31;58740;50.672;18.690;2023-02-05T18:32:12;-2.97;68.27
71082;SHT31;58740;50.672;18.690;2023-02-05T18:34:40;-2.98;68.22
71082;SHT31;58740;50.672;18.690;2023-02-05T18:37:08;-2.95;68.42
71082;SHT31;58740;50.672;18.690;2023-02-05T18:39:36;-2.92;68.47
71082;SHT31;58740;50.672;18.690;2023-02-05T18:42:04;-2.88;68.41
71082;SHT31;58740;50.672;18.690;2023-02-05T18:44:32;-2.84;68.77
71082;SHT31;58740;50.672;18.690;2023-02-05T18:47:03;-2.79;69.04
71082;SHT31;58740;50.672;18.690;2023-02-05T18:49:32;-2.75;69.18
71082;SHT31;58740;50.672;18.690;2023-02-05T18:52:01;-2.73;69.12
71082;SHT31;58740;50.672;18.690;2023-02-05T18:54:29;-2.73;68.90
71082;SHT31;58740;50.672;18.690;2023-02-05T18:56:57;-2.72;69.35
71082;SHT31;58740;50.672;18.690;2023-02-05T18:59:32;-2.72;69.50
71082;SHT31;58740;50.672;18.690;2023-02-05T19:02:00;-2.71;69.05